createdAt,value
2023-05-24T00:01:00.489Z,3.03
2023-05-24T00:03:30.980Z,2.50
2023-05-24T00:05:58.269Z,3.28
2023-05-24T00:08:25.327Z,4.43
2023-05-24T00:10:52.591Z,2.83
2023-05-24T00:13:19.923Z,3.15
2023-05-24T00:15:47.099Z,3.75
2023-05-24T00:18:15.372Z,3.30
2023-05-24T00:20:43.017Z,3.45
2023-05-24T00:23:10.517Z,3.50
2023-05-24T00:25:37.985Z,3.95
2023-05-24T00:28:05.076Z,3.20
2023-05-24T00:30:35.104Z,3.13
2023-05-24T00:33:04.984Z,3.30
2023-05-24T00:35:32.196Z,3.05
2023-05-24T00:37:59.395Z,3.15
2023-05-24T00:40:26.691Z,3.63
2023-05-24T00:42:53.988Z,3.33
2023-05-24T00:45:21.111Z,3.10
2023-05-24T00:47:48.378Z,3.50
2023-05-24T00:50:17.381Z,3.00
2023-05-24T00:52:45.101Z,3.72
2023-05-24T00:55:12.495Z,3.00
2023-05-24T00:57:39.840Z,3.33
2023-05-24T01:00:08.385Z,3.13
2023-05-24T01:02:35.750Z,5.15
2023-05-24T01:05:04.291Z,3.55
2023-05-24T01:07:53.549Z,3.00
2023-05-24T01:10:35.788Z,3.25
2023-05-24T01:13:27.001Z,3.40
2023-05-24T01:16:01.964Z,3.33
2023-05-24T01:18:34.993Z,3.80
2023-05-24T01:21:48.565Z,3.83
2023-05-24T01:24:33.123Z,3.13
2023-05-24T01:27:07.664Z,3.35
2023-05-24T01:29:36.612Z,3.55
2023-05-24T01:32:04.280Z,3.67
2023-05-24T01:34:31.532Z,3.55
2023-05-24T01:36:58.863Z,3.72
2023-05-24T01:39:29.043Z,3.45
2023-05-24T01:42:38.233Z,3.67
2023-05-24T01:45:16.943Z,3.80
2023-05-24T01:47:53.091Z,3.88
2023-05-24T01:53:14.277Z,3.08
2023-05-24T01:55:42.551Z,3.65
2023-05-24T01:58:11.242Z,4.07
2023-05-24T02:00:40.932Z,4.18
2023-05-24T02:03:08.646Z,3.53
2023-05-24T02:05:36.094Z,3.70
2023-05-24T02:08:03.464Z,4.07
2023-05-24T02:10:30.984Z,3.47
2023-05-24T02:12:59.764Z,3.70
2023-05-24T02:15:30.575Z,3.60
2023-05-24T02:17:58.360Z,3.70
2023-05-24T02:20:25.708Z,3.65
2023-05-24T02:22:52.933Z,3.70
2023-05-24T02:25:20.071Z,3.60
2023-05-24T02:27:48.158Z,4.45
2023-05-24T02:30:15.595Z,3.70
2023-05-24T02:32:42.964Z,4.32
2023-05-24T02:35:10.169Z,4.10
2023-05-24T02:37:37.499Z,3.85
2023-05-24T02:40:05.617Z,3.78
2023-05-24T02:42:32.992Z,3.67
2023-05-24T02:45:00.285Z,4.03
2023-05-24T02:47:27.613Z,4.35
2023-05-24T02:49:55.277Z,4.22
2023-05-24T02:52:23.398Z,5.03
2023-05-24T02:54:51.003Z,4.40
2023-05-24T02:57:18.382Z,5.05
2023-05-24T02:59:45.579Z,4.30
2023-05-24T03:02:13.842Z,4.00
2023-05-24T03:04:41.327Z,4.43
2023-05-24T03:07:08.529Z,4.35
2023-05-24T03:09:35.917Z,4.47
2023-05-24T03:12:03.259Z,3.83
2023-05-24T03:14:30.248Z,4.25
2023-05-24T03:16:57.453Z,4.30
2023-05-24T03:19:24.525Z,4.03
2023-05-24T03:21:52.545Z,4.28
2023-05-24T03:24:20.967Z,4.13
2023-05-24T03:26:48.288Z,3.90
2023-05-24T03:29:15.783Z,4.18
2023-05-24T03:31:43.268Z,3.75
2023-05-24T03:34:10.570Z,4.07
2023-05-24T03:36:38.042Z,4.05
2023-05-24T03:39:05.328Z,3.78
2023-05-24T03:41:32.439Z,3.42
2023-05-24T03:44:00.558Z,3.92
2023-05-24T03:46:27.911Z,3.67
2023-05-24T03:48:55.332Z,4.05
2023-05-24T03:51:29.642Z,4.43
2023-05-24T03:53:57.742Z,3.53
2023-05-24T03:56:26.800Z,3.80
2023-05-24T03:58:54.191Z,4.20
2023-05-24T04:01:32.836Z,3.55
2023-05-24T04:04:01.778Z,3.67
2023-05-24T04:06:29.716Z,4.07
2023-05-24T04:09:00.976Z,3.60
2023-05-24T04:11:28.708Z,3.80
2023-05-24T04:13:57.662Z,4.53
2023-05-24T04:16:26.471Z,4.38
2023-05-24T04:18:57.726Z,3.90
2023-05-24T04:21:25.037Z,4.35
2023-05-24T04:23:52.310Z,4.60
2023-05-24T04:26:21.516Z,4.72
2023-05-24T04:28:48.863Z,4.43
2023-05-24T04:31:16.724Z,4.53
2023-05-24T04:33:44.058Z,3.88
2023-05-24T04:36:11.959Z,4.55
2023-05-24T04:38:41.200Z,4.57
2023-05-24T04:41:08.425Z,4.95
2023-05-24T04:43:35.715Z,5.65
2023-05-24T04:46:03.017Z,4.20
2023-05-24T04:48:30.607Z,3.78
2023-05-24T04:50:58.635Z,4.55
2023-05-24T04:53:26.507Z,3.97
2023-05-24T04:55:53.867Z,4.00
2023-05-24T04:58:20.982Z,4.18
2023-05-24T05:00:48.378Z,4.43
2023-05-24T05:03:16.235Z,3.72
2023-05-24T05:05:44.588Z,4.35
2023-05-24T05:08:11.894Z,3.78
2023-05-24T05:10:39.096Z,3.80
2023-05-24T05:13:06.153Z,3.65
2023-05-24T05:15:33.512Z,3.88
2023-05-24T05:18:00.536Z,4.50
2023-05-24T05:20:27.860Z,4.93
2023-05-24T05:22:55.273Z,4.28
2023-05-24T05:25:22.695Z,4.43
2023-05-24T05:27:50.000Z,4.15
2023-05-24T05:30:17.553Z,3.90
2023-05-24T05:32:44.840Z,4.80
2023-05-24T05:35:12.037Z,4.13
2023-05-24T05:37:39.341Z,4.30
2023-05-24T05:40:07.054Z,4.00
2023-05-24T05:42:34.173Z,4.25
2023-05-24T05:45:03.313Z,4.60
2023-05-24T05:47:30.497Z,4.28
2023-05-24T05:49:57.619Z,4.38
2023-05-24T05:52:24.778Z,4.10
2023-05-24T05:54:52.253Z,3.80
2023-05-24T05:57:24.315Z,3.75
2023-05-24T05:59:51.882Z,3.40
2023-05-24T06:02:19.537Z,4.00
2023-05-24T06:04:47.602Z,4.22
2023-05-24T06:07:14.930Z,4.15
2023-05-24T06:09:42.137Z,4.05
2023-05-24T06:12:09.388Z,4.40
2023-05-24T06:14:38.636Z,4.88
2023-05-24T06:17:06.565Z,4.28
2023-05-24T06:19:34.104Z,4.13
2023-05-24T06:22:02.051Z,4.60
2023-05-24T06:24:30.527Z,4.72
2023-05-24T06:26:58.225Z,4.07
2023-05-24T06:29:25.533Z,4.32
2023-05-24T06:31:53.171Z,3.58
2023-05-24T06:34:23.661Z,3.75
2023-05-24T06:36:53.052Z,3.90
2023-05-24T06:39:21.133Z,3.85
2023-05-24T06:41:51.487Z,4.25
2023-05-24T06:44:18.996Z,3.72
2023-05-24T06:46:46.838Z,3.33
2023-05-24T06:49:14.040Z,4.05
2023-05-24T06:51:41.984Z,3.40
2023-05-24T06:54:09.212Z,4.05
2023-05-24T06:56:36.588Z,4.07
2023-05-24T06:59:03.818Z,4.72
2023-05-24T07:01:30.893Z,3.92
2023-05-24T09:33:18.238Z,4.28
2023-05-24T09:35:45.123Z,4.32
2023-05-24T09:38:19.617Z,3.60
2023-05-24T09:40:47.053Z,3.67
2023-05-24T09:43:14.091Z,3.75
2023-05-24T09:45:46.775Z,3.80
2023-05-24T09:48:15.476Z,3.83
2023-05-24T09:50:45.936Z,4.45
2023-05-24T09:53:13.076Z,3.97
2023-05-24T09:55:40.177Z,4.85
2023-05-24T09:58:09.147Z,4.07
2023-05-24T10:00:41.252Z,4.00
2023-05-24T10:03:11.315Z,3.30
2023-05-24T10:05:42.041Z,3.97
2023-05-24T10:08:10.027Z,3.58
2023-05-24T10:10:37.156Z,4.25
2023-05-24T10:13:05.593Z,5.28
2023-05-24T10:15:32.478Z,4.53
2023-05-24T10:18:11.331Z,4.95
2023-05-24T10:20:42.281Z,4.25
2023-05-24T10:23:10.676Z,4.88
2023-05-24T10:25:51.102Z,4.53
2023-05-24T10:28:19.893Z,4.82
2023-05-24T10:31:00.626Z,3.85
2023-05-24T10:33:28.411Z,4.13
2023-05-24T10:35:56.687Z,5.18
2023-05-24T10:38:25.084Z,4.72
2023-05-24T10:40:54.960Z,4.55
2023-05-24T10:43:22.154Z,4.82
2023-05-24T10:45:50.751Z,4.68
2023-05-24T10:48:32.626Z,4.28
2023-05-24T10:51:21.585Z,4.50
2023-05-24T10:53:50.061Z,4.18
2023-05-24T10:56:17.712Z,4.70
2023-05-24T10:58:46.373Z,4.32
2023-05-24T11:01:28.844Z,3.90
2023-05-24T11:04:15.271Z,4.35
2023-05-24T11:06:49.901Z,4.22
2023-05-24T11:09:22.692Z,4.72
2023-05-24T11:11:54.146Z,4.47
2023-05-24T11:14:24.755Z,3.75
2023-05-24T11:16:52.046Z,4.38
2023-05-24T11:19:32.649Z,3.83
2023-05-24T11:22:01.293Z,3.67
2023-05-24T11:24:29.139Z,4.03
2023-05-24T11:26:57.203Z,5.07
2023-05-24T11:29:25.204Z,4.65
2023-05-24T11:32:06.363Z,6.55
2023-05-24T11:34:34.323Z,4.82
2023-05-24T11:37:06.142Z,5.38
2023-05-24T11:39:35.496Z,5.00
2023-05-24T11:42:06.421Z,4.70
2023-05-24T11:44:34.261Z,4.25
2023-05-24T11:47:02.137Z,4.63
2023-05-24T11:49:29.529Z,4.00
2023-05-24T11:52:00.078Z,4.63
2023-05-24T11:54:32.669Z,5.15
2023-05-24T11:56:59.797Z,4.18
2023-05-24T11:59:28.701Z,4.03
2023-05-24T12:02:00.150Z,4.60
2023-05-24T12:04:31.198Z,4.15
2023-05-24T12:06:58.585Z,4.78
2023-05-24T12:09:25.831Z,4.63
2023-05-24T12:11:53.882Z,4.20
2023-05-24T12:14:26.123Z,4.28
2023-05-24T12:16:56.253Z,5.45
2023-05-24T12:19:37.247Z,4.28
2023-05-24T12:22:06.724Z,4.85
2023-05-24T12:24:34.327Z,4.05
2023-05-24T12:27:06.920Z,5.05
2023-05-24T12:29:40.013Z,4.05
2023-05-24T12:32:13.131Z,3.83
2023-05-24T12:34:44.819Z,4.10
2023-05-24T12:37:13.202Z,5.35
2023-05-24T12:39:43.133Z,3.75
2023-05-24T12:42:12.692Z,3.75
2023-05-24T12:44:40.054Z,3.20
2023-05-24T12:47:08.463Z,3.00
2023-05-24T12:49:36.412Z,4.28
2023-05-24T12:52:03.770Z,3.60
2023-05-24T12:54:30.942Z,3.58
2023-05-24T12:57:00.217Z,3.90
2023-05-24T12:59:28.774Z,4.13
2023-05-24T13:01:56.170Z,4.25
2023-05-24T13:04:26.412Z,3.90
2023-05-24T13:06:53.524Z,4.20
2023-05-24T13:09:23.141Z,3.80
2023-05-24T13:11:50.656Z,4.45
2023-05-24T13:14:18.399Z,7.22
2023-05-24T13:16:49.110Z,3.83
2023-05-24T13:19:17.229Z,4.20
2023-05-24T13:21:44.348Z,3.55
2023-05-24T13:24:15.732Z,3.75
2023-05-24T13:26:43.216Z,3.42
2023-05-24T13:31:43.728Z,2.83
2023-05-24T13:34:11.330Z,3.15
2023-05-24T13:36:38.669Z,3.15
2023-05-24T13:41:53.827Z,3.55
2023-05-24T13:44:21.513Z,3.00
2023-05-24T13:46:48.403Z,3.42
2023-05-24T13:47:41.321Z,2.97
2023-05-24T13:49:16.078Z,3.20
2023-05-24T13:51:43.089Z,2.90
2023-05-24T13:54:10.016Z,2.85
2023-05-24T13:56:37.396Z,3.00
2023-05-24T13:59:05.321Z,3.00
2023-05-24T14:01:39.288Z,2.92
2023-05-24T14:04:06.925Z,3.00
2023-05-24T14:06:34.830Z,2.90
2023-05-24T14:09:01.995Z,2.90
2023-05-24T14:11:31.540Z,2.85
2023-05-24T14:16:29.263Z,3.45
2023-05-24T14:18:56.730Z,3.33
2023-05-24T14:21:25.857Z,3.08
2023-05-24T14:23:52.841Z,2.60
2023-05-24T14:26:22.035Z,3.15
2023-05-24T14:28:49.410Z,2.90
2023-05-24T14:31:16.325Z,3.38
2023-05-24T14:33:43.810Z,3.88
2023-05-24T14:36:11.057Z,3.17
2023-05-24T14:38:38.001Z,2.92
2023-05-24T14:41:06.242Z,3.55
2023-05-24T14:43:33.293Z,2.90
2023-05-24T14:46:00.265Z,2.90
2023-05-24T14:48:27.272Z,2.92
2023-05-24T14:50:54.223Z,3.30
2023-05-24T14:53:21.108Z,3.22
2023-05-24T14:55:48.278Z,2.92
2023-05-24T14:58:15.194Z,3.00
2023-05-24T15:00:45.562Z,3.00
2023-05-24T15:03:14.697Z,3.10
2023-05-24T15:05:42.984Z,3.08
2023-05-24T15:08:11.482Z,2.90
2023-05-24T15:10:44.146Z,3.35
2023-05-24T15:13:11.411Z,3.13
2023-05-24T15:15:38.344Z,2.72
2023-05-24T15:18:05.940Z,3.10
2023-05-24T15:20:35.766Z,3.00
2023-05-24T15:23:04.010Z,2.90
2023-05-24T15:25:30.926Z,3.30
2023-05-24T15:27:58.086Z,3.03
2023-05-24T15:30:25.257Z,3.38
2023-05-24T15:32:52.215Z,3.33
2023-05-24T15:35:19.078Z,2.83
2023-05-24T15:37:46.765Z,3.40
2023-05-24T15:40:23.805Z,4.07
2023-05-24T15:42:52.968Z,3.92
2023-05-24T15:45:20.417Z,4.15
2023-05-24T15:47:47.361Z,4.13
2023-05-24T15:50:15.027Z,4.80
2023-05-24T15:52:42.289Z,3.97
2023-05-24T15:55:12.601Z,3.80
2023-05-24T15:57:42.492Z,4.40
2023-05-24T16:00:09.894Z,4.30
2023-05-24T16:02:36.830Z,4.75
2023-05-24T16:05:03.721Z,4.32
2023-05-24T16:07:31.894Z,4.38
2023-05-24T16:09:58.979Z,3.72
2023-05-24T16:12:26.242Z,4.45
2023-05-24T16:14:53.279Z,5.10
2023-05-24T16:17:21.184Z,3.92
2023-05-24T16:20:05.203Z,3.88
2023-05-24T16:22:46.293Z,4.30
2023-05-24T16:25:17.843Z,5.03
2023-05-24T16:27:44.790Z,4.65
2023-05-24T16:30:12.319Z,4.20
2023-05-24T16:32:40.092Z,4.40
2023-05-24T16:35:10.729Z,4.60
2023-05-24T16:37:37.970Z,4.50
2023-05-24T16:40:08.739Z,4.60
2023-05-24T16:42:35.579Z,4.43
2023-05-24T16:45:03.155Z,4.30
2023-05-24T16:47:30.284Z,4.40
2023-05-24T16:49:57.322Z,4.82
2023-05-24T16:52:24.175Z,4.57
2023-05-24T16:54:51.327Z,4.55
2023-05-24T16:57:18.169Z,4.00
2023-05-24T16:59:45.307Z,4.20
2023-05-24T17:02:12.268Z,4.32
2023-05-24T17:04:39.181Z,4.68
2023-05-24T17:07:06.379Z,4.82
2023-05-24T17:09:33.263Z,4.47
2023-05-24T17:12:00.151Z,4.57
2023-05-24T17:14:27.077Z,5.25
2023-05-24T17:16:53.986Z,4.30
2023-05-24T17:19:21.549Z,4.95
2023-05-24T17:21:48.408Z,4.38
2023-05-24T17:24:15.568Z,4.82
2023-05-24T17:26:42.640Z,5.68
2023-05-24T17:29:09.693Z,4.60
2023-05-24T17:31:37.841Z,4.80
2023-05-24T17:34:04.889Z,4.45
2023-05-24T17:36:33.724Z,4.97
2023-05-24T17:39:00.733Z,4.82
2023-05-24T17:41:28.137Z,5.22
2023-05-24T17:43:55.114Z,5.22
2023-05-24T17:46:21.993Z,5.30
2023-05-24T17:48:52.429Z,4.68
2023-05-24T17:51:22.416Z,5.05
2023-05-24T17:53:49.372Z,5.18
2023-05-24T17:56:16.548Z,5.00
2023-05-24T17:58:45.504Z,4.57
2023-05-24T18:01:16.348Z,4.22
2023-05-24T18:03:43.376Z,4.70
2023-05-24T18:06:10.571Z,4.65
2023-05-24T18:08:40.980Z,4.85
2023-05-24T18:11:08.718Z,4.60
2023-05-24T18:13:37.910Z,4.82
2023-05-24T18:16:05.696Z,3.80
2023-05-24T18:18:33.466Z,4.22
2023-05-24T18:21:00.734Z,4.30
2023-05-24T18:23:27.764Z,4.10
2023-05-24T18:26:01.075Z,4.03
2023-05-24T18:28:30.069Z,3.63
2023-05-24T18:30:57.152Z,3.30
2023-05-24T18:33:24.466Z,3.65
2023-05-24T18:35:51.473Z,3.47
2023-05-24T18:38:18.472Z,4.15
2023-05-24T18:40:45.805Z,3.50
2023-05-24T18:43:12.724Z,3.78
2023-05-24T18:45:39.720Z,3.95
2023-05-24T18:48:06.868Z,3.53
2023-05-24T18:50:33.868Z,3.05
2023-05-24T18:53:02.298Z,3.30
2023-05-24T18:55:29.395Z,3.70
2023-05-24T18:57:56.391Z,3.25
2023-05-24T19:00:24.574Z,2.58
2023-05-24T19:02:51.781Z,2.88
2023-05-24T19:05:20.117Z,2.65
2023-05-24T19:07:47.327Z,2.67
2023-05-24T19:10:14.386Z,2.80
2023-05-24T19:12:41.451Z,2.50
2023-05-24T19:15:08.665Z,3.05
2023-05-24T19:17:35.780Z,3.00
2023-05-24T19:20:03.286Z,3.25
2023-05-24T19:22:30.352Z,2.80
2023-05-24T19:24:57.350Z,3.15
2023-05-24T19:27:24.746Z,2.53
2023-05-24T19:29:52.007Z,2.80
2023-05-24T19:32:20.341Z,2.90
2023-05-24T19:34:47.545Z,2.90
2023-05-24T19:37:15.715Z,2.70
2023-05-24T19:39:42.729Z,2.67
2023-05-24T19:42:11.110Z,3.00
2023-05-24T19:44:38.226Z,2.60
2023-05-24T19:47:05.407Z,2.55
2023-05-24T19:49:32.290Z,3.08
2023-05-24T19:51:59.297Z,2.50
2023-05-24T19:54:26.358Z,3.33
2023-05-24T19:56:55.116Z,3.25
2023-05-24T19:59:22.107Z,3.00
2023-05-24T20:01:49.230Z,2.97
2023-05-24T20:04:16.241Z,3.10
2023-05-24T20:06:43.136Z,3.03
2023-05-24T20:09:10.165Z,3.10
2023-05-24T20:11:37.012Z,3.17
2023-05-24T20:14:03.907Z,3.05
2023-05-24T20:16:31.498Z,2.40
2023-05-24T20:18:58.447Z,3.47
2023-05-24T20:21:25.481Z,2.40
2023-05-24T20:23:57.817Z,2.80
2023-05-24T20:26:26.436Z,3.00
2023-05-24T20:28:53.435Z,2.50
2023-05-24T20:31:20.499Z,2.80
2023-05-24T20:33:48.947Z,3.03
2023-05-24T20:36:16.051Z,2.65
2023-05-24T20:38:43.004Z,3.08
2023-05-24T20:41:09.979Z,2.65
2023-05-24T20:43:36.816Z,2.65
2023-05-24T20:46:03.742Z,3.17
2023-05-24T20:48:32.738Z,3.15
2023-05-24T20:50:59.841Z,3.47
2023-05-24T20:53:26.735Z,3.08
2023-05-24T20:55:53.672Z,2.60
2023-05-24T20:58:20.709Z,2.75
2023-05-24T21:00:47.648Z,2.53
2023-05-24T21:03:14.849Z,2.85
2023-05-24T21:05:41.990Z,2.72
2023-05-24T21:08:09.172Z,2.70
2023-05-24T21:10:38.009Z,3.08
2023-05-24T21:13:05.925Z,3.05
2023-05-24T21:15:32.961Z,3.17
2023-05-24T21:18:00.011Z,2.90
2023-05-24T21:20:26.953Z,2.88
2023-05-24T21:22:53.951Z,2.70
2023-05-24T21:25:21.027Z,3.13
2023-05-24T21:27:47.929Z,3.00
2023-05-24T21:30:15.108Z,3.30
2023-05-24T21:32:42.019Z,2.60
2023-05-24T21:35:09.098Z,3.35
2023-05-24T21:37:35.995Z,2.88
2023-05-24T21:40:03.120Z,3.28
2023-05-24T21:42:30.015Z,3.03
2023-05-24T21:44:56.904Z,3.28
2023-05-24T21:47:23.806Z,3.35
2023-05-24T21:49:51.305Z,3.10
2023-05-24T21:52:18.139Z,3.40
2023-05-24T21:54:45.215Z,3.00
2023-05-24T21:57:12.510Z,2.78
2023-05-24T21:59:39.389Z,3.30
2023-05-24T22:02:06.586Z,3.15
2023-05-24T22:04:33.559Z,3.30
2023-05-24T22:07:00.506Z,3.65
2023-05-24T22:09:27.414Z,3.33
2023-05-24T22:11:54.338Z,3.05
2023-05-24T22:14:21.424Z,3.08
2023-05-24T22:16:48.485Z,3.20
2023-05-24T22:19:18.364Z,3.50
2023-05-24T22:21:50.383Z,3.72
2023-05-24T22:24:17.358Z,3.03
2023-05-24T22:26:46.776Z,4.55
2023-05-24T22:29:14.050Z,3.13
2023-05-24T22:31:41.568Z,3.10
2023-05-24T22:34:10.659Z,3.70
2023-05-24T22:36:38.928Z,3.97
2023-05-24T22:39:06.358Z,4.45
2023-05-24T22:41:33.347Z,3.70
2023-05-24T22:44:00.470Z,3.42
2023-05-24T22:46:27.531Z,3.80
2023-05-24T22:48:57.746Z,3.85
2023-05-24T22:51:25.338Z,3.50
2023-05-24T22:53:52.950Z,3.72
2023-05-24T22:56:20.153Z,4.25
2023-05-24T22:58:47.029Z,3.97
2023-05-24T23:01:15.376Z,3.47
2023-05-24T23:03:42.406Z,3.80
2023-05-24T23:06:11.972Z,4.30
2023-05-24T23:08:39.436Z,3.58
2023-05-24T23:11:13.297Z,3.83
2023-05-24T23:13:42.361Z,3.30
2023-05-24T23:16:09.492Z,3.85
2023-05-24T23:18:37.802Z,3.38
2023-05-24T23:21:04.934Z,4.20
2023-05-24T23:23:31.807Z,3.78
2023-05-24T23:25:58.749Z,4.13
2023-05-24T23:28:25.616Z,3.85
2023-05-24T23:30:53.710Z,4.00
2023-05-24T23:33:21.004Z,4.18
2023-05-24T23:35:48.075Z,4.20
2023-05-24T23:38:15.833Z,3.78
2023-05-24T23:40:43.190Z,3.78
2023-05-24T23:43:10.203Z,4.03
2023-05-24T23:45:37.133Z,4.25
2023-05-24T23:48:04.196Z,4.53
2023-05-24T23:50:35.185Z,4.15
2023-05-24T23:53:07.716Z,4.05
2023-05-24T23:55:34.752Z,4.10
2023-05-24T23:58:01.623Z,3.70
